createdAt,value
2022-08-22T00:03:35.504Z,9.43
2022-08-22T00:09:40.185Z,8.13
2022-08-22T00:15:49.125Z,8.80
2022-08-22T00:22:04.302Z,6.80
2022-08-22T00:28:21.175Z,7.35
2022-08-22T00:34:26.446Z,8.85
2022-08-22T00:41:01.938Z,7.03
2022-08-22T00:47:40.625Z,11.00
2022-08-22T00:54:00.605Z,8.13
2022-08-22T01:00:21.710Z,9.15
2022-08-22T01:06:40.129Z,6.25
2022-08-22T01:12:41.736Z,8.25
2022-08-22T01:18:43.362Z,8.45
2022-08-22T01:25:19.980Z,9.77
2022-08-22T01:32:01.984Z,6.22
2022-08-22T01:38:22.050Z,8.60
2022-08-22T01:44:24.396Z,8.20
2022-08-22T01:50:44.651Z,7.57
2022-08-22T01:56:47.279Z,7.47
2022-08-22T02:03:01.563Z,6.80
2022-08-22T02:09:14.562Z,6.40
2022-08-22T02:15:34.397Z,9.07
2022-08-22T02:21:51.207Z,6.50
2022-08-22T02:28:06.317Z,6.70
2022-08-22T02:34:58.942Z,7.43
2022-08-22T02:41:04.178Z,7.70
2022-08-22T02:47:15.826Z,5.90
2022-08-22T02:53:32.085Z,9.10
2022-08-22T02:59:38.505Z,6.53
2022-08-22T03:05:46.062Z,9.15
2022-08-22T03:12:01.363Z,6.55
2022-08-22T03:18:21.687Z,7.22
2022-08-22T03:24:26.398Z,7.63
2022-08-22T03:30:38.513Z,6.15
2022-08-22T03:36:47.658Z,7.57
2022-08-22T03:43:14.435Z,6.13
2022-08-22T03:49:42.196Z,6.85
2022-08-22T03:55:44.276Z,8.15
2022-08-22T04:02:41.799Z,7.55
2022-08-22T04:08:45.993Z,8.50
2022-08-22T04:15:21.611Z,7.10
2022-08-22T04:21:47.816Z,6.25
2022-08-22T04:28:06.241Z,8.98
2022-08-22T04:34:22.799Z,11.93
2022-08-22T04:40:46.710Z,12.75
2022-08-22T04:47:17.515Z,13.05
2022-08-22T04:53:25.212Z,19.35
2022-08-22T04:59:29.452Z,20.85
2022-08-22T05:05:39.067Z,23.38
2022-08-22T05:11:42.564Z,18.63
2022-08-22T05:17:47.506Z,18.20
2022-08-22T05:24:08.340Z,22.67
2022-08-22T05:30:16.394Z,20.30
2022-08-22T05:36:30.391Z,23.73
2022-08-22T05:42:35.096Z,17.95
2022-08-22T05:48:45.485Z,32.75
2022-08-22T05:54:58.890Z,28.65
2022-08-22T06:01:32.893Z,16.17
2022-08-22T06:07:48.847Z,16.67
2022-08-22T06:13:58.305Z,16.85
2022-08-22T06:20:00.601Z,14.60
2022-08-22T06:26:04.390Z,19.35
2022-08-22T06:32:58.541Z,16.65
2022-08-22T06:39:10.711Z,21.05
2022-08-22T06:45:19.394Z,19.13
2022-08-22T06:51:25.149Z,17.85
2022-08-22T06:57:34.896Z,14.38
2022-08-22T07:03:40.391Z,18.23
2022-08-22T07:09:42.352Z,21.52
2022-08-22T07:15:50.811Z,30.02
2022-08-22T07:21:53.226Z,30.75
2022-08-22T07:28:36.862Z,37.10
2022-08-22T07:34:54.606Z,29.95
2022-08-22T07:41:16.697Z,21.23
2022-08-22T07:47:26.712Z,23.58
2022-08-22T07:53:30.581Z,20.20
2022-08-22T07:59:37.278Z,18.85
2022-08-22T08:05:43.016Z,23.67
2022-08-22T08:11:45.065Z,22.33
2022-08-22T08:17:51.407Z,21.63
2022-08-22T08:23:55.825Z,23.65
2022-08-22T08:30:15.472Z,20.80
2022-08-22T08:36:47.524Z,30.98
2022-08-22T08:43:22.888Z,21.95
2022-08-22T08:49:58.115Z,20.73
2022-08-22T08:56:19.801Z,25.13
2022-08-22T09:02:52.419Z,20.52
2022-08-22T09:09:29.429Z,24.92
2022-08-22T09:16:08.227Z,17.58
2022-08-22T09:22:14.982Z,20.23
2022-08-22T09:28:28.214Z,26.73
2022-08-22T09:35:02.006Z,19.17
2022-08-22T09:41:19.625Z,28.17
2022-08-22T09:47:35.165Z,47.35
2022-08-22T09:53:56.442Z,31.67
2022-08-22T10:00:05.403Z,31.45
2022-08-22T10:06:17.961Z,28.17
2022-08-22T10:12:29.687Z,29.88
2022-08-22T10:18:52.792Z,25.17
2022-08-22T10:25:01.597Z,23.75
2022-08-22T10:31:15.019Z,29.85
2022-08-22T10:37:32.614Z,26.73
2022-08-22T10:44:00.607Z,27.38
2022-08-22T10:50:35.291Z,43.75
2022-08-22T10:56:46.195Z,42.30
2022-08-22T11:03:02.487Z,35.50
2022-08-22T11:09:19.238Z,37.17
2022-08-22T11:16:07.276Z,38.92
2022-08-22T11:22:36.697Z,31.15
2022-08-22T11:29:13.798Z,44.15
2022-08-22T11:35:26.145Z,52.70
2022-08-22T11:41:52.772Z,37.85
2022-08-22T11:48:09.706Z,43.05
2022-08-22T11:54:31.259Z,33.10
2022-08-22T12:01:11.806Z,39.83
2022-08-22T12:07:33.284Z,34.67
2022-08-22T12:14:05.892Z,30.88
2022-08-22T12:20:16.246Z,30.80
2022-08-22T12:26:45.068Z,27.17
2022-08-22T12:33:10.630Z,25.65
2022-08-22T12:39:45.810Z,34.90
2022-08-22T12:46:13.028Z,40.95
2022-08-22T12:52:32.547Z,27.65
2022-08-22T12:59:09.662Z,37.20
2022-08-22T13:05:24.771Z,33.47
2022-08-22T13:11:30.920Z,27.38
2022-08-22T13:17:33.228Z,20.00
2022-08-22T13:23:43.412Z,35.60
2022-08-22T13:29:52.111Z,24.10
2022-08-22T13:35:58.337Z,26.65
2022-08-22T13:42:07.685Z,30.80
2022-08-22T13:48:16.424Z,52.30
2022-08-22T13:54:39.987Z,39.78
2022-08-22T14:01:01.078Z,46.45
2022-08-22T14:07:03.707Z,105.32
2022-08-22T14:13:12.149Z,116.20
2022-08-22T14:19:38.278Z,96.25
2022-08-22T14:25:54.657Z,89.80
2022-08-22T14:32:22.565Z,43.42
2022-08-22T14:38:33.217Z,36.78
2022-08-22T14:44:49.204Z,37.08
2022-08-22T14:51:10.198Z,49.53
2022-08-22T14:57:19.721Z,39.53
2022-08-22T15:03:25.030Z,45.08
2022-08-22T15:09:34.148Z,43.92
2022-08-22T15:15:49.376Z,54.05
2022-08-22T15:22:20.454Z,40.17
2022-08-22T15:28:22.846Z,58.90
2022-08-22T15:49:54.650Z,34.60
2022-08-22T15:56:07.150Z,56.63
2022-08-22T16:02:42.164Z,49.55
2022-08-22T16:08:52.608Z,45.70
2022-08-22T16:14:55.036Z,28.23
2022-08-22T16:20:58.152Z,46.15
2022-08-22T16:27:18.515Z,37.85
2022-08-22T16:33:39.244Z,20.60
2022-08-22T16:40:06.935Z,35.58
2022-08-22T16:46:31.376Z,31.63
2022-08-22T16:52:50.444Z,42.83
2022-08-22T16:59:19.653Z,52.67
2022-08-22T17:05:42.221Z,45.72
2022-08-22T17:11:55.019Z,32.20
2022-08-22T17:17:59.536Z,30.52
2022-08-22T17:24:31.650Z,42.35
2022-08-22T17:30:58.697Z,36.60
2022-08-22T17:37:38.644Z,44.60
2022-08-22T17:43:58.772Z,72.47
2022-08-22T17:50:10.756Z,31.60
2022-08-22T17:56:18.199Z,62.08
2022-08-22T18:02:23.408Z,40.60
2022-08-22T18:08:38.455Z,28.92
2022-08-22T18:14:55.523Z,21.63
2022-08-22T18:21:06.575Z,19.90
2022-08-22T18:27:30.021Z,16.38
2022-08-22T18:33:57.337Z,26.13
2022-08-22T18:40:16.594Z,24.98
2022-08-22T18:46:48.234Z,26.45
2022-08-22T18:52:55.952Z,17.75
2022-08-22T18:59:18.802Z,26.65
2022-08-22T19:05:26.254Z,20.48
2022-08-22T19:11:53.210Z,17.65
2022-08-22T19:18:06.741Z,26.58
2022-08-22T19:24:29.790Z,31.13
2022-08-22T19:30:34.267Z,31.40
2022-08-22T19:36:36.277Z,21.20
2022-08-22T19:42:44.200Z,18.15
2022-08-22T19:48:50.341Z,14.80
2022-08-22T19:55:28.834Z,16.77
2022-08-22T20:01:39.788Z,12.68
2022-08-22T20:07:56.603Z,18.63
2022-08-22T20:14:14.497Z,13.25
2022-08-22T20:20:24.067Z,16.40
2022-08-22T20:26:52.198Z,17.83
2022-08-22T20:33:20.712Z,16.98
2022-08-22T20:39:26.306Z,19.15
2022-08-22T20:45:29.563Z,8.95
2022-08-22T20:51:33.849Z,13.30
2022-08-22T20:57:49.202Z,11.23
2022-08-22T21:03:53.427Z,13.40
2022-08-22T21:10:22.758Z,23.85
2022-08-22T21:16:31.986Z,17.52
2022-08-22T21:22:33.755Z,9.93
2022-08-22T21:28:54.096Z,8.18
2022-08-22T21:34:56.100Z,13.13
2022-08-22T21:41:04.653Z,17.88
2022-08-22T21:47:31.384Z,9.95
2022-08-22T21:53:33.364Z,27.27
2022-08-22T21:59:51.387Z,26.13
2022-08-22T22:06:03.064Z,23.08
2022-08-22T22:12:04.906Z,17.13
2022-08-22T22:18:07.365Z,14.25
2022-08-22T22:24:09.072Z,12.77
2022-08-22T22:30:11.688Z,11.82
2022-08-22T22:36:20.563Z,12.10
2022-08-22T22:42:22.248Z,11.13
2022-08-22T22:48:24.887Z,12.35
2022-08-22T22:54:27.577Z,20.75
2022-08-22T23:00:34.885Z,12.25
2022-08-22T23:06:36.684Z,9.90
2022-08-22T23:12:39.292Z,7.55
2022-08-22T23:18:42.030Z,9.25
2022-08-22T23:24:43.822Z,12.05
2022-08-22T23:30:45.536Z,13.70
2022-08-22T23:36:48.347Z,8.43
2022-08-22T23:42:50.237Z,7.88
2022-08-22T23:48:52.857Z,7.43
2022-08-22T23:54:55.660Z,5.63
